Time;durP1;ratioP1;P1;durP2;ratioP2;P2;SDS_P1;SDS_P2;PMS_P1;PMS_P2;Temp;Humidity;BMP_temperature;BMP_pressure;BME280_temperature;BME280_humidity;BME280_pressure;Samples;Min_cycle;Max_cycle;Signal;HPM_P1;HPM_P2
2024/04/09 00:00:39;;;;;;;12.95;8.25;;;11.50;99.90;;;;;;5347886;26;20069;-75
2024/04/09 00:03:05;;;;;;;14.20;8.48;;;11.40;99.90;;;;;;5373231;26;20024;-76
2024/04/09 00:05:39;;;;;;;12.00;8.02;;;11.40;99.90;;;;;;5355590;26;20074;-76
2024/04/09 00:08:07;;;;;;;16.08;8.38;;;11.30;99.90;;;;;;5348830;26;20447;-75
2024/04/09 00:10:33;;;;;;;10.25;5.82;;;11.20;99.90;;;;;;5352888;26;20323;-76
2024/04/09 00:13:00;;;;;;;7.95;5.55;;;11.20;99.90;;;;;;5347501;26;20099;-76
2024/04/09 00:15:29;;;;;;;7.43;4.57;;;11.10;99.90;;;;;;5369132;26;20443;-75
2024/04/09 00:17:55;;;;;;;6.00;3.97;;;11.10;99.90;;;;;;5365549;26;20000;-75
2024/04/09 00:20:24;;;;;;;6.13;3.58;;;11.10;99.90;;;;;;5374071;26;20372;-74
2024/04/09 00:22:58;;;;;;;8.55;4.22;;;11.10;99.90;;;;;;5352593;26;19997;-75
2024/04/09 00:25:24;;;;;;;4.20;3.67;;;11.00;99.90;;;;;;5380239;26;20019;-75
2024/04/09 00:27:52;;;;;;;7.30;4.28;;;11.00;99.90;;;;;;5376753;26;20075;-74
2024/04/09 00:30:19;;;;;;;6.57;3.80;;;11.00;99.90;;;;;;5376319;26;20008;-75
2024/04/09 00:32:46;;;;;;;5.93;3.83;;;11.00;99.90;;;;;;5394794;26;20019;-75
2024/04/09 00:35:11;;;;;;;4.30;3.90;;;11.00;99.90;;;;;;5384062;26;20389;-74
2024/04/09 00:37:41;;;;;;;5.05;3.50;;;11.00;99.90;;;;;;5405531;26;20030;-75
2024/04/09 00:40:09;;;;;;;5.78;4.18;;;11.00;99.90;;;;;;5389124;26;20004;-75
2024/04/09 00:42:36;;;;;;;5.22;3.92;;;11.00;99.90;;;;;;5396724;26;20398;-74
2024/04/09 00:45:05;;;;;;;7.43;4.03;;;11.00;99.90;;;;;;5398068;26;20000;-74
2024/04/09 00:47:34;;;;;;;6.22;4.60;;;10.90;99.90;;;;;;5382743;26;20016;-74
2024/04/09 00:50:04;;;;;;;8.00;5.18;;;10.90;99.90;;;;;;5382161;26;20008;-75
2024/04/09 00:52:33;;;;;;;7.13;4.97;;;10.90;99.90;;;;;;5381727;26;20016;-75
2024/04/09 00:55:03;;;;;;;5.80;4.97;;;10.80;99.90;;;;;;5396876;26;20333;-75
2024/04/09 00:57:30;;;;;;;6.00;5.25;;;10.70;99.90;;;;;;5388249;26;20029;-74
2024/04/09 00:59:56;;;;;;;6.10;4.90;;;10.70;99.90;;;;;;5381669;26;20036;-74
2024/04/09 01:02:23;;;;;;;9.18;4.95;;;10.60;99.90;;;;;;5382264;26;20004;-75
2024/04/09 01:04:52;;;;;;;5.50;4.78;;;10.60;99.90;;;;;;5392005;26;20008;-74
2024/04/09 01:07:18;;;;;;;7.38;5.05;;;10.50;99.90;;;;;;5385038;26;20010;-74
2024/04/09 01:09:43;;;;;;;7.43;4.95;;;10.50;99.90;;;;;;5383396;26;20001;-75
2024/04/09 01:12:09;;;;;;;4.80;4.30;;;10.50;99.90;;;;;;5381186;26;20023;-76
2024/04/09 01:14:34;;;;;;;5.82;4.70;;;10.50;99.90;;;;;;5395594;26;20332;-75
2024/04/09 01:17:00;;;;;;;5.05;4.50;;;10.50;99.90;;;;;;5442795;26;20002;-76
2024/04/09 01:19:26;;;;;;;5.38;4.13;;;10.50;99.90;;;;;;5443109;26;20003;-75
2024/04/09 01:21:53;;;;;;;5.28;4.30;;;10.60;99.90;;;;;;5420864;26;20020;-75
2024/04/09 01:24:20;;;;;;;5.72;3.08;;;10.50;99.90;;;;;;5419634;26;20018;-76
2024/04/09 01:26:49;;;;;;;5.90;3.42;;;10.50;99.90;;;;;;5402383;26;20001;-75
2024/04/09 01:29:15;;;;;;;5.00;3.42;;;10.50;99.90;;;;;;5379164;26;20015;-76
2024/04/09 01:31:41;;;;;;;4.68;3.65;;;10.50;99.90;;;;;;5386437;26;20012;-75
2024/04/09 01:34:09;;;;;;;7.75;3.95;;;10.50;99.90;;;;;;5420548;26;20515;-75
2024/04/09 01:36:38;;;;;;;6.32;3.75;;;10.50;99.90;;;;;;5403444;26;20343;-75
2024/04/09 01:39:08;;;;;;;4.82;4.13;;;10.50;99.90;;;;;;5384701;26;20019;-75
2024/04/09 01:41:36;;;;;;;4.70;4.28;;;10.50;99.90;;;;;;5391208;26;20040;-76
2024/04/09 01:44:02;;;;;;;5.63;4.60;;;10.40;99.90;;;;;;5381449;26;20000;-75
2024/04/09 01:46:28;;;;;;;6.03;5.35;;;10.40;99.90;;;;;;5381539;26;20070;-76
2024/04/09 01:48:53;;;;;;;7.18;4.93;;;10.30;99.90;;;;;;5419335;26;20007;-75
2024/04/09 01:51:19;;;;;;;5.05;4.25;;;10.30;99.90;;;;;;5431722;26;20061;-75
2024/04/09 01:53:49;;;;;;;5.95;4.50;;;10.30;99.90;;;;;;5437065;26;20328;-75
2024/04/09 01:56:15;;;;;;;6.60;4.80;;;10.20;99.90;;;;;;5415015;26;20007;-76
2024/04/09 01:58:41;;;;;;;5.40;4.47;;;10.20;99.90;;;;;;5414413;26;19999;-75
2024/04/09 02:01:09;;;;;;;4.78;3.80;;;10.10;99.90;;;;;;5413475;26;20098;-75
2024/04/09 02:03:39;;;;;;;7.45;3.78;;;10.10;99.90;;;;;;5391623;26;20008;-75
2024/04/09 02:06:14;;;;;;;5.38;4.18;;;10.10;99.90;;;;;;5434242;26;20002;-75
2024/04/09 02:08:41;;;;;;;5.25;3.88;;;10.10;99.90;;;;;;5425853;26;20014;-75
2024/04/09 02:11:06;;;;;;;4.35;3.47;;;10.10;99.90;;;;;;5447144;26;20016;-75
2024/04/09 02:13:32;;;;;;;8.27;4.30;;;10.20;99.90;;;;;;5362736;26;20091;-75
2024/04/09 02:16:02;;;;;;;5.70;5.05;;;10.10;99.90;;;;;;5396580;26;20044;-75
2024/04/09 02:18:28;;;;;;;7.38;5.32;;;10.00;99.90;;;;;;5384815;26;20063;-75
2024/04/09 02:20:53;;;;;;;6.07;4.63;;;10.00;99.90;;;;;;5373261;26;20469;-75
2024/04/09 02:23:19;;;;;;;7.35;4.88;;;9.90;99.90;;;;;;5399567;26;20007;-75
2024/04/09 02:25:45;;;;;;;5.93;5.25;;;9.90;99.90;;;;;;5397093;26;20015;-75
2024/04/09 02:28:11;;;;;;;6.32;5.55;;;9.80;99.90;;;;;;5379623;26;20000;-76
2024/04/09 02:30:37;;;;;;;6.07;4.80;;;9.80;99.90;;;;;;5402506;26;20007;-74
2024/04/09 02:33:03;;;;;;;5.85;4.97;;;9.80;99.90;;;;;;5393930;26;20494;-75
2024/04/09 02:35:29;;;;;;;9.00;4.65;;;9.80;99.90;;;;;;5370828;26;20015;-75
2024/04/09 02:37:54;;;;;;;8.02;4.68;;;9.70;99.90;;;;;;5404436;26;20016;-75
2024/04/09 02:40:20;;;;;;;7.93;4.57;;;9.80;99.90;;;;;;5397308;26;20000;-74
2024/04/09 02:42:46;;;;;;;4.30;3.85;;;9.80;99.90;;;;;;5391821;26;20011;-75
2024/04/09 02:45:13;;;;;;;9.73;4.72;;;9.70;99.90;;;;;;5419004;26;20000;-75
2024/04/09 02:47:39;;;;;;;8.68;5.38;;;9.70;99.90;;;;;;5376963;26;20001;-75
2024/04/09 02:50:05;;;;;;;5.30;4.70;;;9.70;99.90;;;;;;5381462;26;20074;-75
2024/04/09 02:52:32;;;;;;;5.45;4.03;;;9.70;99.90;;;;;;5379640;26;20001;-74
2024/04/09 02:54:58;;;;;;;6.53;4.35;;;9.70;99.90;;;;;;5381651;26;20000;-75
2024/04/09 02:57:23;;;;;;;5.30;3.65;;;9.70;99.90;;;;;;5373154;26;20016;-75
2024/04/09 02:59:55;;;;;;;6.15;3.70;;;9.70;99.90;;;;;;5382046;26;20004;-75
2024/04/09 03:02:21;;;;;;;5.28;3.63;;;9.80;99.90;;;;;;5370309;26;20364;-75
2024/04/09 03:04:47;;;;;;;5.53;3.63;;;9.80;99.90;;;;;;5370508;26;19997;-76
2024/04/09 03:07:12;;;;;;;4.75;4.05;;;9.80;99.90;;;;;;5371510;26;20005;-76
2024/04/09 03:09:38;;;;;;;7.47;4.20;;;9.80;99.90;;;;;;5371070;26;20011;-74
2024/04/09 03:12:05;;;;;;;5.05;4.40;;;9.80;99.90;;;;;;5373440;26;20033;-75
2024/04/09 03:14:31;;;;;;;9.57;4.72;;;9.70;99.90;;;;;;5370390;26;20004;-75
2024/04/09 03:16:57;;;;;;;8.55;5.07;;;9.60;99.90;;;;;;5364085;26;20329;-76
2024/04/09 03:19:22;;;;;;;6.18;4.47;;;9.60;99.90;;;;;;5381735;26;20044;-75
2024/04/09 03:21:48;;;;;;;24.73;4.38;;;9.60;99.90;;;;;;5386793;26;20013;-75
2024/04/09 03:24:14;;;;;;;6.82;3.90;;;9.60;99.90;;;;;;5398296;26;20328;-76
2024/04/09 03:26:40;;;;;;;4.93;4.03;;;9.60;99.90;;;;;;5361970;26;20028;-76
2024/04/09 03:29:05;;;;;;;9.55;4.30;;;9.60;99.90;;;;;;5381220;26;20011;-75
2024/04/09 03:31:31;;;;;;;6.70;4.50;;;9.60;99.90;;;;;;5357149;26;19997;-75
2024/04/09 03:33:57;;;;;;;7.07;4.22;;;9.60;99.90;;;;;;5366808;26;20008;-74
2024/04/09 03:36:22;;;;;;;7.13;4.25;;;9.60;99.90;;;;;;5370784;26;20020;-76
2024/04/09 03:38:48;;;;;;;4.43;4.03;;;9.60;99.90;;;;;;5355372;26;20472;-76
2024/04/09 03:41:14;;;;;;;5.28;3.72;;;9.60;99.90;;;;;;5357714;26;20027;-76
2024/04/09 03:43:39;;;;;;;5.68;3.88;;;9.70;99.90;;;;;;5362247;26;20000;-75
2024/04/09 03:46:13;;;;;;;4.88;4.00;;;9.70;99.90;;;;;;5361184;26;20362;-75
2024/04/09 03:48:43;;;;;;;9.68;4.57;;;9.80;99.90;;;;;;5373267;26;20024;-75
2024/04/09 03:51:09;;;;;;;4.75;4.25;;;9.80;99.90;;;;;;5353494;26;20009;-75
2024/04/09 03:53:37;;;;;;;6.85;4.10;;;9.80;99.90;;;;;;5351774;26;20027;-76
2024/04/09 03:56:03;;;;;;;8.13;3.70;;;9.80;99.90;;;;;;5356087;26;20007;-76
2024/04/09 03:58:31;;;;;;;5.60;3.85;;;9.80;99.90;;;;;;5380362;26;20012;-75
2024/04/09 04:00:57;;;;;;;8.15;4.57;;;9.70;99.90;;;;;;5380153;26;20019;-76
2024/04/09 04:03:27;;;;;;;5.75;4.28;;;9.70;99.90;;;;;;5378746;26;20023;-75
2024/04/09 04:05:54;;;;;;;4.13;3.70;;;9.70;99.90;;;;;;5361708;26;20001;-74
2024/04/09 04:08:23;;;;;;;5.45;4.28;;;9.70;99.90;;;;;;5377993;26;20013;-75
2024/04/09 04:10:53;;;;;;;6.65;3.72;;;9.70;99.90;;;;;;5385362;26;20004;-75
2024/04/09 04:13:19;;;;;;;4.57;3.65;;;9.70;99.90;;;;;;5368679;26;19997;-75
2024/04/09 04:15:45;;;;;;;5.25;3.70;;;9.60;99.90;;;;;;5405287;26;20040;-75
2024/04/09 04:18:11;;;;;;;6.65;3.92;;;9.70;99.90;;;;;;5421355;26;20340;-75
2024/04/09 04:20:37;;;;;;;5.57;3.72;;;9.70;99.90;;;;;;5410080;26;20048;-75
2024/04/09 04:23:03;;;;;;;4.13;3.72;;;9.70;99.90;;;;;;5402436;26;20008;-75
2024/04/09 04:25:28;;;;;;;4.40;3.58;;;9.70;99.90;;;;;;5399004;26;20015;-75
2024/04/09 04:27:54;;;;;;;9.45;3.53;;;9.80;99.90;;;;;;5364932;26;20391;-77
2024/04/09 04:30:20;;;;;;;10.80;3.67;;;9.80;99.90;;;;;;5403202;26;20334;-75
2024/04/09 04:32:45;;;;;;;6.00;4.00;;;9.80;99.90;;;;;;5381659;26;20015;-75
2024/04/09 04:35:11;;;;;;;6.38;4.05;;;9.80;99.90;;;;;;5375810;26;20008;-75
2024/04/09 04:37:37;;;;;;;7.28;4.40;;;9.80;99.90;;;;;;5377208;26;20050;-75
2024/04/09 04:40:03;;;;;;;6.65;3.97;;;9.80;99.90;;;;;;5380998;26;20015;-76
2024/04/09 04:42:30;;;;;;;4.20;3.78;;;9.80;99.90;;;;;;5419141;26;20019;-75
2024/04/09 04:44:56;;;;;;;5.90;5.25;;;9.90;99.90;;;;;;5408469;26;20081;-75
2024/04/09 04:47:22;;;;;;;9.30;5.40;;;10.00;99.90;;;;;;5391125;26;20420;-76
2024/04/09 04:49:47;;;;;;;4.75;3.95;;;10.10;99.90;;;;;;5405386;26;20008;-76
2024/04/09 04:52:13;;;;;;;7.43;4.80;;;10.20;99.90;;;;;;5391972;26;20000;-76
2024/04/09 04:54:39;;;;;;;4.70;3.92;;;10.30;99.90;;;;;;5384874;26;20089;-76
2024/04/09 04:57:05;;;;;;;7.38;3.90;;;10.30;99.90;;;;;;5385764;26;20340;-76
2024/04/09 04:59:30;;;;;;;7.80;4.93;;;10.40;99.90;;;;;;5386425;26;20334;-76
2024/04/09 05:01:56;;;;;;;13.38;4.80;;;10.40;99.90;;;;;;5416230;26;20011;-74
2024/04/09 05:04:22;;;;;;;29.38;4.70;;;10.50;99.90;;;;;;5415029;26;20031;-74
2024/04/09 05:06:48;;;;;;;7.53;3.67;;;10.50;99.90;;;;;;5412616;26;20322;-74
2024/04/09 05:09:14;;;;;;;2.88;2.60;;;10.70;99.90;;;;;;5414788;26;20336;-74
2024/04/09 05:11:39;;;;;;;9.48;3.65;;;10.80;99.90;;;;;;5411707;26;20008;-74
2024/04/09 05:14:05;;;;;;;5.60;3.15;;;11.00;99.90;;;;;;5408702;26;20003;-73
2024/04/09 05:16:31;;;;;;;4.82;3.20;;;11.30;99.90;;;;;;5413212;26;20011;-74
2024/04/09 05:18:56;;;;;;;6.55;3.65;;;11.50;99.90;;;;;;5410260;26;20388;-74
2024/04/09 05:21:22;;;;;;;8.77;3.80;;;11.60;99.90;;;;;;5416209;26;20016;-73
2024/04/09 05:23:48;;;;;;;16.83;3.88;;;11.70;99.90;;;;;;5414907;26;20328;-74
2024/04/09 05:26:14;;;;;;;3.35;3.00;;;11.80;99.90;;;;;;5417917;26;20348;-74
2024/04/09 05:28:39;;;;;;;5.03;2.90;;;11.90;99.90;;;;;;5381980;26;20004;-74
2024/04/09 05:31:05;;;;;;;3.67;2.33;;;12.10;99.90;;;;;;5404805;26;20018;-73
2024/04/09 05:33:31;;;;;;;8.70;2.70;;;12.40;99.90;;;;;;5380670;26;20052;-74
2024/04/09 05:35:56;;;;;;;4.80;2.63;;;12.60;99.90;;;;;;5380583;26;20012;-74
2024/04/09 05:38:22;;;;;;;4.15;2.42;;;12.90;99.90;;;;;;5392624;26;20329;-74
2024/04/09 05:40:58;;;;;;;3.60;2.50;;;13.10;99.90;;;;;;5412120;26;20050;-75
2024/04/09 05:43:23;;;;;;;4.72;2.28;;;13.40;99.90;;;;;;5415127;26;20023;-74
2024/04/09 05:45:49;;;;;;;5.65;2.35;;;13.60;98.60;;;;;;5407590;26;20342;-74
2024/04/09 05:48:15;;;;;;;6.50;2.33;;;13.80;95.70;;;;;;5407054;26;20003;-75
2024/04/09 05:50:40;;;;;;;3.33;2.45;;;13.90;92.40;;;;;;5404812;26;20005;-74
2024/04/09 05:53:06;;;;;;;66.63;8.07;;;14.10;91.80;;;;;;5426026;26;20020;-74
2024/04/09 05:55:32;;;;;;;4.90;2.53;;;14.20;89.50;;;;;;5432268;26;20007;-75
2024/04/09 05:57:58;;;;;;;4.85;2.22;;;14.40;87.10;;;;;;5404850;26;20014;-75
2024/04/09 06:00:24;;;;;;;5.22;2.42;;;14.50;88.20;;;;;;5381016;26;20013;-75
2024/04/09 06:02:50;;;;;;;4.80;2.63;;;14.60;85.60;;;;;;5388699;26;20053;-74
2024/04/09 06:05:16;;;;;;;3.70;2.17;;;14.70;82.50;;;;;;5386128;26;20020;-75
2024/04/09 06:07:42;;;;;;;5.13;2.47;;;14.80;81.60;;;;;;5399343;26;20011;-75
2024/04/09 06:10:07;;;;;;;3.88;1.90;;;14.80;80.90;;;;;;5370636;26;20009;-75
2024/04/09 06:12:33;;;;;;;7.18;2.92;;;15.00;80.00;;;;;;5406212;26;20037;-75
2024/04/09 06:14:59;;;;;;;4.45;2.33;;;15.00;80.00;;;;;;5400118;26;20085;-74
2024/04/09 06:17:25;;;;;;;3.60;2.30;;;15.10;80.20;;;;;;5383324;26;20040;-75
2024/04/09 06:19:53;;;;;;;3.28;2.35;;;15.10;80.40;;;;;;5427929;26;20005;-74
2024/04/09 06:22:19;;;;;;;7.95;2.60;;;15.30;80.60;;;;;;5369164;26;20011;-75
2024/04/09 06:24:47;;;;;;;7.63;2.60;;;15.50;80.00;;;;;;5411093;26;20035;-74
2024/04/09 06:27:13;;;;;;;5.55;2.67;;;15.70;79.60;;;;;;5384085;26;20086;-74
2024/04/09 06:29:41;;;;;;;5.20;2.85;;;15.80;79.00;;;;;;5404684;26;20044;-75
2024/04/09 06:32:07;;;;;;;5.60;2.60;;;15.90;78.00;;;;;;5380906;26;20036;-75
2024/04/09 06:34:33;;;;;;;3.60;2.55;;;16.10;77.40;;;;;;5397801;26;20476;-75
2024/04/09 06:37:00;;;;;;;2.67;2.15;;;16.30;76.90;;;;;;5390918;26;20012;-75
2024/04/09 06:39:26;;;;;;;3.33;2.45;;;16.40;76.90;;;;;;5384730;26;20465;-75
2024/04/09 06:41:52;;;;;;;5.32;2.47;;;16.60;76.80;;;;;;5375364;26;20076;-75
2024/04/09 06:44:17;;;;;;;7.22;2.58;;;16.90;75.30;;;;;;5404650;26;20503;-74
2024/04/09 06:46:43;;;;;;;4.55;2.50;;;16.90;75.60;;;;;;5406187;26;20031;-74
2024/04/09 06:49:08;;;;;;;4.38;2.35;;;17.10;74.80;;;;;;5377613;26;20008;-75
2024/04/09 06:51:34;;;;;;;2.63;2.40;;;17.40;73.40;;;;;;5349873;26;20028;-76
2024/04/09 06:54:00;;;;;;;7.05;1.85;;;17.60;73.20;;;;;;5356654;26;20027;-75
2024/04/09 06:56:25;;;;;;;3.97;2.40;;;17.90;72.20;;;;;;5378996;26;20009;-75
2024/04/09 06:58:51;;;;;;;4.90;2.30;;;18.10;71.50;;;;;;5350103;26;20001;-76
2024/04/09 07:01:17;;;;;;;5.30;2.22;;;18.50;71.30;;;;;;5391319;26;20007;-76
2024/04/09 07:03:42;;;;;;;4.13;2.15;;;18.70;69.00;;;;;;5380223;26;20020;-76
2024/04/09 07:06:08;;;;;;;7.68;2.67;;;19.00;68.20;;;;;;5368639;26;20086;-76
2024/04/09 07:08:33;;;;;;;9.80;2.65;;;19.30;66.40;;;;;;5387602;26;20060;-74
2024/04/09 07:10:59;;;;;;;6.07;1.92;;;19.60;64.60;;;;;;5390721;26;20026;-76
2024/04/09 07:13:25;;;;;;;2.97;2.30;;;19.90;62.60;;;;;;5392251;26;19996;-76
2024/04/09 07:15:51;;;;;;;3.05;1.40;;;20.10;61.10;;;;;;5392542;26;20472;-77
2024/04/09 07:18:17;;;;;;;4.18;2.55;;;20.40;59.20;;;;;;5383751;26;20023;-77
2024/04/09 07:20:43;;;;;;;6.47;2.40;;;20.60;59.00;;;;;;5410476;26;20019;-77
2024/04/09 07:23:09;;;;;;;6.47;2.22;;;20.80;57.90;;;;;;5432315;26;20047;-76
2024/04/09 07:25:35;;;;;;;5.10;1.98;;;21.00;57.30;;;;;;5429192;26;20018;-76
2024/04/09 07:28:00;;;;;;;3.15;1.70;;;21.20;57.30;;;;;;5395326;26;20097;-75
2024/04/09 07:30:26;;;;;;;3.65;1.83;;;21.40;55.40;;;;;;5410301;26;20022;-76
2024/04/09 07:32:51;;;;;;;3.42;1.48;;;21.50;55.40;;;;;;5389714;26;20349;-76
2024/04/09 07:35:17;;;;;;;5.15;1.55;;;21.60;55.70;;;;;;5387014;26;20349;-77
2024/04/09 07:37:43;;;;;;;5.05;1.60;;;21.80;54.60;;;;;;5390589;26;20449;-77
2024/04/09 07:40:08;;;;;;;2.17;1.48;;;21.90;53.60;;;;;;5387185;26;20469;-77
2024/04/09 07:42:34;;;;;;;3.58;1.40;;;22.10;50.20;;;;;;5420775;26;20023;-77
2024/04/09 07:45:00;;;;;;;1.50;1.10;;;22.30;48.90;;;;;;5398291;26;20469;-77
2024/04/09 07:47:25;;;;;;;1.90;1.20;;;22.50;48.80;;;;;;5385953;26;20008;-77
2024/04/09 07:49:53;;;;;;;1.60;1.00;;;22.70;47.80;;;;;;5385787;26;20032;-77
2024/04/09 07:52:18;;;;;;;2.15;1.05;;;22.80;47.10;;;;;;5421766;26;19995;-77
2024/04/09 07:54:44;;;;;;;6.60;1.70;;;22.90;47.40;;;;;;5415003;26;20007;-77
2024/04/09 07:57:14;;;;;;;2.08;0.80;;;23.10;45.60;;;;;;5402807;26;20032;-77
2024/04/09 07:59:40;;;;;;;5.45;1.23;;;23.30;45.70;;;;;;5419200;26;20015;-77
2024/04/09 08:02:06;;;;;;;3.03;1.10;;;23.40;44.70;;;;;;5393814;26;20015;-77
2024/04/09 08:04:32;;;;;;;2.67;0.98;;;23.50;44.00;;;;;;5396209;26;20453;-77
2024/04/09 08:06:58;;;;;;;3.70;1.15;;;23.60;43.00;;;;;;5410869;26;20012;-77
2024/04/09 08:09:23;;;;;;;5.97;1.05;;;23.80;43.40;;;;;;5404386;26;20019;-77
2024/04/09 08:11:49;;;;;;;7.38;1.75;;;23.90;43.90;;;;;;5406718;26;20011;-77
2024/04/09 08:14:15;;;;;;;2.28;1.38;;;24.10;43.90;;;;;;5382488;26;20012;-77
2024/04/09 08:16:41;;;;;;;2.00;0.95;;;24.10;43.40;;;;;;5409309;26;20003;-77
2024/04/09 08:19:07;;;;;;;1.80;1.08;;;24.30;41.80;;;;;;5403107;26;20012;-77
2024/04/09 08:21:33;;;;;;;2.03;0.95;;;24.30;42.20;;;;;;5385509;26;20771;-77
2024/04/09 08:23:58;;;;;;;2.35;0.93;;;24.30;41.10;;;;;;5418910;26;20467;-76
2024/04/09 08:26:24;;;;;;;2.58;1.00;;;24.40;42.40;;;;;;5428622;26;20455;-77
2024/04/09 08:28:52;;;;;;;4.25;1.10;;;24.30;40.80;;;;;;5392090;26;20420;-77
2024/04/09 08:31:27;;;;;;;1.70;1.00;;;24.30;40.90;;;;;;5422780;26;19996;-77
2024/04/09 08:33:53;;;;;;;1.13;1.02;;;24.20;40.80;;;;;;5406582;26;20011;-77
2024/04/09 08:36:19;;;;;;;1.40;1.00;;;24.20;41.20;;;;;;5425674;26;20081;-77
2024/04/09 08:38:44;;;;;;;5.10;1.30;;;24.20;41.00;;;;;;5417382;26;20023;-77
2024/04/09 08:41:10;;;;;;;1.55;0.95;;;24.30;40.70;;;;;;5416379;26;20049;-76
2024/04/09 08:43:36;;;;;;;1.88;1.20;;;24.30;41.00;;;;;;5409884;26;20068;-77
2024/04/09 08:46:04;;;;;;;3.88;1.02;;;24.40;40.10;;;;;;5392915;26;20016;-77
2024/04/09 08:48:30;;;;;;;1.30;1.05;;;24.40;39.70;;;;;;5405335;26;20443;-77
2024/04/09 08:51:00;;;;;;;2.13;1.10;;;24.50;40.00;;;;;;5410793;26;20452;-77
2024/04/09 08:53:31;;;;;;;2.95;1.35;;;24.60;40.20;;;;;;5432342;26;20038;-77
2024/04/09 08:55:56;;;;;;;3.30;0.90;;;24.60;39.20;;;;;;5435567;26;20433;-77
2024/04/09 08:58:22;;;;;;;2.10;1.27;;;24.70;40.70;;;;;;5421954;26;20041;-77
2024/04/09 09:00:48;;;;;;;2.08;1.20;;;24.60;41.20;;;;;;5432663;26;20023;-77
2024/04/09 09:03:13;;;;;;;2.65;1.55;;;24.60;40.80;;;;;;5399153;26;20368;-78
2024/04/09 09:05:39;;;;;;;2.67;1.25;;;24.60;41.30;;;;;;5409733;26;20004;-77
2024/04/09 09:08:05;;;;;;;3.42;1.60;;;24.50;41.20;;;;;;5402789;26;20014;-77
2024/04/09 09:10:33;;;;;;;2.60;1.50;;;24.60;42.90;;;;;;5404124;26;20474;-77
2024/04/09 09:13:02;;;;;;;2.38;1.30;;;24.60;42.90;;;;;;5403765;26;20346;-77
2024/04/09 09:15:28;;;;;;;1.85;1.42;;;24.70;42.80;;;;;;5408641;26;20384;-77
2024/04/09 09:17:55;;;;;;;5.88;1.90;;;24.70;43.50;;;;;;5396813;26;20049;-77
2024/04/09 09:20:22;;;;;;;2.75;1.40;;;24.80;43.60;;;;;;5431047;26;20448;-77
2024/04/09 09:22:47;;;;;;;2.55;1.50;;;24.80;42.90;;;;;;5409399;26;20003;-78
2024/04/09 09:25:25;;;;;;;3.88;1.58;;;24.80;45.00;;;;;;5423870;26;20449;-77
2024/04/09 09:28:06;;;;;;;2.22;1.63;;;24.90;45.00;;;;;;5380460;26;20449;-77
2024/04/09 09:30:42;;;;;;;4.55;1.50;;;25.00;45.40;;;;;;5401285;26;20022;-77
2024/04/09 09:33:31;;;;;;;2.78;1.77;;;25.00;45.40;;;;;;5391939;26;20012;-77
2024/04/09 09:35:57;;;;;;;2.75;1.08;;;25.10;46.10;;;;;;5399896;26;20035;-77
2024/04/09 09:38:25;;;;;;;2.13;1.65;;;25.00;43.30;;;;;;5397409;26;20023;-77
2024/04/09 09:40:52;;;;;;;2.25;1.10;;;25.30;44.60;;;;;;5381257;26;20000;-78
2024/04/09 09:43:20;;;;;;;2.90;1.10;;;25.30;41.60;;;;;;5376964;26;20000;-77
2024/04/09 09:45:46;;;;;;;1.15;1.05;;;25.30;41.10;;;;;;5400011;26;20099;-76
2024/04/09 09:48:12;;;;;;;1.20;0.82;;;25.30;39.70;;;;;;5358121;26;20334;-77
2024/04/09 09:50:39;;;;;;;4.10;1.45;;;25.50;40.50;;;;;;5369746;26;20008;-77
2024/04/09 09:53:07;;;;;;;4.28;1.10;;;25.60;39.90;;;;;;5372280;26;20007;-77
2024/04/09 09:55:34;;;;;;;4.40;1.63;;;25.70;41.30;;;;;;5387671;26;20098;-77
2024/04/09 09:58:03;;;;;;;1.50;1.17;;;25.70;41.30;;;;;;5364529;26;20410;-78
2024/04/09 10:00:32;;;;;;;1.52;0.90;;;25.70;40.80;;;;;;5405502;26;20747;-77
2024/04/09 10:02:58;;;;;;;1.98;1.25;;;25.70;40.50;;;;;;5401340;26;20000;-77
2024/04/09 10:05:28;;;;;;;2.53;1.25;;;25.60;40.80;;;;;;5356007;26;20020;-78
2024/04/09 10:07:54;;;;;;;3.25;1.30;;;25.50;41.40;;;;;;5371015;26;20383;-77
2024/04/09 10:10:27;;;;;;;2.83;1.63;;;25.40;40.80;;;;;;5373479;26;20011;-77
2024/04/09 10:12:54;;;;;;;2.70;1.30;;;25.50;40.70;;;;;;5398874;26;20007;-77
2024/04/09 10:15:26;;;;;;;3.03;1.30;;;25.50;40.40;;;;;;5397485;26;20468;-77
2024/04/09 10:17:53;;;;;;;3.15;1.40;;;25.50;40.90;;;;;;5408375;26;19999;-77
2024/04/09 10:20:25;;;;;;;5.25;1.50;;;25.50;40.20;;;;;;5398054;26;20008;-78
2024/04/09 10:22:52;;;;;;;2.88;1.30;;;25.60;40.50;;;;;;5397237;26;20018;-78
2024/04/09 10:25:23;;;;;;;3.75;1.33;;;25.80;41.20;;;;;;5414989;26;19995;-77
2024/04/09 10:28:10;;;;;;;3.92;1.25;;;25.70;40.00;;;;;;5390271;26;20008;-78
2024/04/09 10:30:37;;;;;;;1.67;1.08;;;26.00;39.70;;;;;;5394322;26;20008;-77
2024/04/09 10:33:05;;;;;;;2.63;1.05;;;26.10;39.60;;;;;;5392095;26;20085;-77
2024/04/09 10:35:32;;;;;;;4.70;1.23;;;26.00;38.90;;;;;;5407054;26;20018;-77
2024/04/09 10:38:04;;;;;;;2.95;1.10;;;25.90;38.30;;;;;;5386897;26;20015;-77
2024/04/09 10:40:31;;;;;;;;;;;25.80;39.10;;;;;;5416471;26;19996;-77
2024/04/09 10:42:58;;;;;;;4.75;1.20;;;25.70;39.50;;;;;;5399023;26;20312;-78
2024/04/09 10:45:24;;;;;;;1.73;1.20;;;25.50;39.00;;;;;;5412368;26;20008;-77
2024/04/09 10:47:49;;;;;;;1.80;1.10;;;25.50;38.60;;;;;;5417706;26;20440;-77
2024/04/09 10:50:16;;;;;;;6.07;1.38;;;25.50;39.30;;;;;;5391884;26;20016;-77
2024/04/09 10:52:42;;;;;;;4.57;1.10;;;25.40;39.20;;;;;;5402752;26;20028;-77
2024/04/09 10:55:13;;;;;;;4.50;1.23;;;25.50;39.10;;;;;;5411786;26;20014;-77
2024/04/09 10:57:39;;;;;;;4.50;1.50;;;25.60;39.70;;;;;;5400547;26;20007;-76
2024/04/09 11:00:15;;;;;;;4.53;1.38;;;25.60;39.50;;;;;;5409679;26;20075;-77
2024/04/09 11:02:43;;;;;;;8.18;1.52;;;25.60;39.90;;;;;;5419752;26;20008;-77
2024/04/09 11:05:10;;;;;;;2.70;0.90;;;25.60;40.40;;;;;;5439257;26;20355;-77
2024/04/09 11:07:40;;;;;;;2.65;1.45;;;25.70;40.00;;;;;;5402295;26;20011;-78
2024/04/09 11:10:14;;;;;;;2.15;1.10;;;25.70;39.90;;;;;;5405044;26;20023;-77
2024/04/09 11:12:53;;;;;;;3.35;1.35;;;25.60;39.60;;;;;;5415618;26;20003;-78
2024/04/09 11:15:20;;;;;;;4.78;1.30;;;25.70;40.10;;;;;;5407497;26;20022;-77
2024/04/09 11:17:46;;;;;;;2.30;1.30;;;25.60;40.20;;;;;;5410260;26;20082;-77
2024/04/09 11:20:18;;;;;;;2.25;1.35;;;25.70;40.90;;;;;;5399737;26;20032;-76
2024/04/09 11:22:44;;;;;;;;;;;25.70;41.30;;;;;;5402684;26;20000;-77
2024/04/09 11:25:22;;;;;;;1.95;1.52;;;25.70;41.00;;;;;;5397368;26;20006;-77
2024/04/09 11:27:50;;;;;;;3.42;1.02;;;25.70;41.60;;;;;;5408695;26;20011;-77
2024/04/09 11:30:24;;;;;;;3.58;1.35;;;25.70;41.10;;;;;;5411453;26;20019;-77
2024/04/09 11:32:52;;;;;;;3.00;1.40;;;25.80;42.20;;;;;;5377071;26;20023;-78
2024/04/09 11:35:21;;;;;;;2.83;1.48;;;25.80;43.30;;;;;;5379206;26;20061;-78
2024/04/09 11:37:51;;;;;;;8.80;2.15;;;25.70;42.80;;;;;;5363183;26;20012;-78
2024/04/09 11:40:20;;;;;;;2.35;1.55;;;25.70;43.30;;;;;;5401434;26;20089;-78
2024/04/09 11:42:53;;;;;;;2.50;1.55;;;25.70;43.70;;;;;;5371263;26;20458;-77
2024/04/09 11:45:30;;;;;;;5.13;1.60;;;25.60;44.10;;;;;;5403704;26;20083;-78
2024/04/09 11:47:57;;;;;;;6.20;2.10;;;25.70;45.30;;;;;;5408103;26;19999;-79
2024/04/09 11:50:23;;;;;;;4.07;1.80;;;25.70;44.00;;;;;;5415044;26;20008;-78
2024/04/09 11:52:50;;;;;;;5.53;2.10;;;25.70;44.30;;;;;;5423700;26;20002;-78
2024/04/09 11:55:16;;;;;;;10.35;2.20;;;25.80;45.00;;;;;;5443577;26;20309;-78
2024/04/09 11:57:44;;;;;;;7.82;2.40;;;25.80;44.30;;;;;;5401394;26;20000;-79
2024/04/09 12:00:14;;;;;;;4.63;1.60;;;25.90;45.00;;;;;;5399012;26;20019;-79
2024/04/09 12:02:40;;;;;;;5.20;1.70;;;25.80;45.10;;;;;;5389240;26;20019;-77
2024/04/09 12:05:06;;;;;;;4.63;1.90;;;25.80;45.30;;;;;;5411294;26;23067;-77
2024/04/09 12:07:32;;;;;;;3.03;1.90;;;25.80;45.40;;;;;;5413605;26;20448;-78
2024/04/09 12:09:58;;;;;;;2.47;1.85;;;25.80;44.00;;;;;;5430614;26;20007;-77
2024/04/09 12:12:23;;;;;;;7.65;1.95;;;25.70;43.00;;;;;;5381753;26;20338;-78
2024/04/09 12:14:49;;;;;;;5.30;2.25;;;25.70;43.60;;;;;;5378871;26;20027;-77
2024/04/09 12:17:15;;;;;;;6.65;2.00;;;25.70;44.40;;;;;;5381156;26;20062;-77
2024/04/09 12:19:42;;;;;;;2.60;1.80;;;25.80;45.30;;;;;;5370310;26;20015;-77
2024/04/09 12:22:08;;;;;;;3.63;2.20;;;25.90;44.80;;;;;;5374185;26;20008;-77
2024/04/09 12:24:35;;;;;;;2.80;1.80;;;26.00;45.40;;;;;;5389257;26;20057;-76
2024/04/09 12:27:01;;;;;;;5.32;2.10;;;26.10;46.40;;;;;;5363325;26;20447;-77
2024/04/09 12:29:28;;;;;;;3.95;2.35;;;26.10;47.30;;;;;;5352522;26;20005;-78
2024/04/09 12:31:54;;;;;;;5.32;2.42;;;26.10;45.50;;;;;;5346515;26;20079;-78
2024/04/09 12:34:22;;;;;;;5.60;2.50;;;26.00;45.00;;;;;;5348129;26;20250;-77
2024/04/09 12:36:48;;;;;;;5.65;1.90;;;26.10;45.50;;;;;;5345681;26;20009;-77
2024/04/09 12:39:14;;;;;;;2.47;2.00;;;26.10;45.70;;;;;;5356680;26;20013;-77
2024/04/09 12:41:40;;;;;;;5.65;1.80;;;26.20;47.00;;;;;;5369459;26;20102;-78
2024/04/09 12:44:06;;;;;;;4.85;1.70;;;26.30;46.80;;;;;;5359357;26;20004;-78
2024/04/09 12:46:31;;;;;;;4.97;1.92;;;26.40;44.00;;;;;;5371699;26;20012;-78